createdAt,value
2022-09-16T00:00:59.009Z,100735.97
2022-09-16T00:03:27.006Z,100737.47
2022-09-16T00:05:55.212Z,100735.88
2022-09-16T00:08:24.613Z,100738.88
2022-09-16T00:10:52.408Z,100734.53
2022-09-16T00:13:20.777Z,100733.41
2022-09-16T00:15:51.252Z,100732.00
2022-09-16T00:18:20.408Z,100737.47
2022-09-16T00:20:49.735Z,100737.81
2022-09-16T00:23:18.277Z,100733.41
2022-09-16T00:25:51.627Z,100739.47
2022-09-16T00:28:19.673Z,100735.94
2022-09-16T00:30:47.516Z,100741.06
2022-09-16T00:33:15.288Z,100738.66
2022-09-16T00:35:43.187Z,100735.50
2022-09-16T00:38:11.015Z,100737.75
2022-09-16T00:40:45.436Z,100747.13
2022-09-16T00:43:16.418Z,100741.66
2022-09-16T00:45:47.734Z,100743.84
2022-09-16T00:48:20.653Z,100744.63
2022-09-16T00:50:51.456Z,100741.88
2022-09-16T00:53:24.434Z,100740.78
2022-09-16T00:55:54.717Z,100750.09
2022-09-16T00:58:29.627Z,100749.41
2022-09-16T01:00:57.540Z,100750.22
2022-09-16T01:03:27.153Z,100748.72
2022-09-16T01:05:55.005Z,100752.59
2022-09-16T01:08:22.843Z,100748.03
2022-09-16T01:10:50.619Z,100744.16
2022-09-16T01:13:18.742Z,100750.84
2022-09-16T01:15:56.601Z,100746.53
2022-09-16T01:18:32.342Z,100744.16
2022-09-16T01:21:26.568Z,100740.06
2022-09-16T01:24:23.327Z,100749.94
2022-09-16T01:27:08.310Z,100741.38
2022-09-16T01:30:17.577Z,100737.06
2022-09-16T01:32:58.828Z,100744.47
2022-09-16T01:35:34.568Z,100747.88
2022-09-16T01:38:10.884Z,100737.28
2022-09-16T01:40:44.705Z,100736.25
2022-09-16T01:43:21.328Z,100734.19
2022-09-16T01:45:56.501Z,100730.16
2022-09-16T01:48:34.725Z,100731.25
2022-09-16T01:51:09.594Z,100740.59
2022-09-16T01:53:40.347Z,100738.34
2022-09-16T01:56:14.519Z,100739.47
2022-09-16T01:58:48.416Z,100739.03
2022-09-16T02:01:23.613Z,100732.66
2022-09-16T02:03:58.915Z,100740.41
2022-09-16T02:06:29.731Z,100735.28
2022-09-16T02:09:01.087Z,100729.47
2022-09-16T02:11:28.891Z,100731.97
2022-09-16T02:14:00.700Z,100727.19
2022-09-16T02:16:36.517Z,100733.09
2022-09-16T02:19:10.898Z,100740.38
2022-09-16T02:21:45.412Z,100729.78
2022-09-16T02:24:17.878Z,100735.34
2022-09-16T02:26:52.939Z,100724.53
2022-09-16T02:29:24.632Z,100724.59
2022-09-16T02:31:57.325Z,100730.19
2022-09-16T02:34:31.736Z,100736.47
2022-09-16T02:37:05.765Z,100731.34
2022-09-16T02:39:38.549Z,100731.00
2022-09-16T02:42:07.396Z,100722.78
2022-09-16T02:44:35.466Z,100717.31
2022-09-16T02:47:10.635Z,100713.00
2022-09-16T02:49:44.420Z,100715.25
2022-09-16T02:52:17.835Z,100707.41
2022-09-16T02:54:53.612Z,100710.50
2022-09-16T02:57:21.949Z,100712.44
2022-09-16T02:59:50.765Z,100704.59
2022-09-16T03:02:19.082Z,100709.59
2022-09-16T03:04:48.254Z,100707.13
2022-09-16T03:07:17.515Z,100704.63
2022-09-16T03:09:49.023Z,100713.06
2022-09-16T03:12:25.002Z,100711.72
2022-09-16T03:15:26.420Z,100713.56
2022-09-16T03:18:12.434Z,100704.44
2022-09-16T03:20:48.342Z,100710.19
2022-09-16T03:23:28.743Z,100705.38
2022-09-16T03:26:04.989Z,100712.44
2022-09-16T03:28:42.166Z,100715.44
2022-09-16T03:31:12.834Z,100709.03
2022-09-16T03:33:48.654Z,100704.03
2022-09-16T03:36:22.131Z,100707.47
2022-09-16T03:38:51.300Z,100702.66
2022-09-16T03:41:19.450Z,100705.88
2022-09-16T03:43:54.242Z,100706.91
2022-09-16T03:46:22.666Z,100703.13
2022-09-16T03:48:50.541Z,100702.66
2022-09-16T03:51:19.800Z,100693.69
2022-09-16T03:53:47.603Z,100697.09
2022-09-16T03:56:15.346Z,100688.56
2022-09-16T03:58:43.144Z,100690.84
2022-09-16T04:01:11.002Z,100687.78
2022-09-16T04:03:38.802Z,100695.72
2022-09-16T04:06:06.967Z,100701.28
2022-09-16T04:08:36.175Z,100691.94
2022-09-16T04:11:06.363Z,100694.44
2022-09-16T04:13:35.508Z,100700.13
2022-09-16T04:16:06.333Z,100690.09
2022-09-16T04:18:34.950Z,100698.31
2022-09-16T04:21:04.826Z,100690.78
2022-09-16T04:23:32.976Z,100691.13
2022-09-16T04:26:03.739Z,100683.72
2022-09-16T04:28:34.662Z,100687.16
2022-09-16T04:31:03.458Z,100690.94
2022-09-16T04:33:32.662Z,100681.81
2022-09-16T04:36:04.594Z,100677.03
2022-09-16T04:38:32.406Z,100687.63
2022-09-16T04:41:06.616Z,100692.66
2022-09-16T04:43:35.078Z,100684.91
2022-09-16T04:46:03.280Z,100692.75
2022-09-16T04:48:31.460Z,100691.94
2022-09-16T04:51:04.334Z,100687.78
2022-09-16T04:53:32.227Z,100686.53
2022-09-16T04:56:09.433Z,100694.50
2022-09-16T04:58:38.202Z,100686.75
2022-09-16T05:01:07.962Z,100692.09
2022-09-16T05:03:35.782Z,100697.56
2022-09-16T05:06:09.083Z,100690.41
2022-09-16T05:08:37.050Z,100694.28
2022-09-16T05:11:08.031Z,100695.75
2022-09-16T05:13:35.915Z,100686.31
2022-09-16T05:16:06.027Z,100687.81
2022-09-16T05:18:33.955Z,100684.72
2022-09-16T05:21:04.803Z,100685.97
2022-09-16T05:23:33.623Z,100686.75
2022-09-16T05:26:04.874Z,100690.19
2022-09-16T05:28:34.376Z,100691.66
2022-09-16T05:31:09.886Z,100693.38
2022-09-16T05:33:38.030Z,100696.56
2022-09-16T05:36:07.239Z,100699.06
2022-09-16T05:38:35.013Z,100696.75
2022-09-16T05:41:03.788Z,100693.38
2022-09-16T05:43:33.532Z,100698.13
2022-09-16T05:46:01.603Z,100693.81
2022-09-16T05:48:29.768Z,100694.59
2022-09-16T05:50:59.768Z,100694.25
2022-09-16T05:53:28.921Z,100692.31
2022-09-16T05:55:57.858Z,100685.25
2022-09-16T05:58:26.725Z,100681.50
2022-09-16T06:01:01.091Z,100689.69
2022-09-16T06:03:29.755Z,100688.13
2022-09-16T06:06:01.816Z,100688.13
2022-09-16T06:08:29.786Z,100688.91
2022-09-16T06:10:57.589Z,100697.47
2022-09-16T06:13:25.346Z,100704.28
2022-09-16T06:15:57.815Z,100702.34
2022-09-16T06:18:29.550Z,100702.44
2022-09-16T06:20:58.297Z,100712.59
2022-09-16T06:23:26.361Z,100710.66
2022-09-16T06:26:01.271Z,100715.88
2022-09-16T06:28:29.053Z,100719.06
2022-09-16T06:31:07.942Z,100710.41
2022-09-16T06:33:37.753Z,100710.19
2022-09-16T06:36:06.605Z,100709.03
2022-09-16T06:38:34.538Z,100711.34
2022-09-16T06:41:03.258Z,100715.31
2022-09-16T06:43:31.661Z,100702.22
2022-09-16T06:46:00.842Z,100706.53
2022-09-16T06:48:29.047Z,100708.69
2022-09-16T06:51:02.629Z,100715.84
2022-09-16T06:53:31.184Z,100710.59
2022-09-16T06:56:02.506Z,100711.91
2022-09-16T06:58:33.481Z,100712.03
2022-09-16T07:01:07.616Z,100707.91
2022-09-16T07:03:38.449Z,100700.94
2022-09-16T07:06:08.667Z,100703.88
2022-09-16T07:08:37.951Z,100700.47
2022-09-16T07:11:07.720Z,100707.63
2022-09-16T07:13:35.729Z,100714.38
2022-09-16T07:16:13.917Z,100714.38
2022-09-16T07:18:42.976Z,100719.22
2022-09-16T07:21:14.542Z,100717.03
2022-09-16T07:23:43.620Z,100721.72
2022-09-16T07:26:13.533Z,100725.31
2022-09-16T07:28:42.788Z,100725.25
2022-09-16T07:31:12.779Z,100723.53
2022-09-16T07:33:42.291Z,100718.34
2022-09-16T07:36:14.882Z,100718.69
2022-09-16T07:38:42.739Z,100720.00
2022-09-16T07:41:12.579Z,100719.97
2022-09-16T07:43:41.425Z,100724.41
2022-09-16T07:46:11.494Z,100728.03
2022-09-16T07:48:39.873Z,100718.72
2022-09-16T07:51:10.578Z,100729.53
2022-09-16T07:53:40.056Z,100729.81
2022-09-16T07:56:09.981Z,100733.28
2022-09-16T07:58:38.242Z,100732.03
2022-09-16T08:01:06.663Z,100728.75
2022-09-16T08:03:34.967Z,100733.59
2022-09-16T08:06:04.476Z,100733.94
2022-09-16T08:08:32.700Z,100742.72
2022-09-16T08:11:03.426Z,100735.63
2022-09-16T08:13:32.908Z,100736.47
2022-09-16T08:16:02.599Z,100737.22
2022-09-16T08:18:31.109Z,100731.53
2022-09-16T08:20:59.489Z,100734.50
2022-09-16T08:23:27.240Z,100734.97
2022-09-16T08:25:58.696Z,100743.59
2022-09-16T08:28:39.799Z,100746.06
2022-09-16T08:31:17.620Z,100746.44
2022-09-16T08:33:46.086Z,100738.91
2022-09-16T08:36:16.161Z,100753.03
2022-09-16T08:38:45.271Z,100747.72
2022-09-16T08:41:27.865Z,100749.00
2022-09-16T08:44:04.850Z,100748.88
2022-09-16T08:46:40.326Z,100743.25
2022-09-16T08:49:26.799Z,100754.25
2022-09-16T08:51:55.484Z,100749.50
2022-09-16T08:54:29.342Z,100766.91
2022-09-16T08:57:02.012Z,100762.09
2022-09-16T08:59:37.387Z,100765.38
2022-09-16T09:02:22.544Z,100772.38
2022-09-16T09:04:50.755Z,100770.78
2022-09-16T09:07:26.042Z,100765.09
2022-09-16T09:10:07.106Z,100765.38
2022-09-16T09:12:41.856Z,100761.59
2022-09-16T09:15:34.765Z,100766.00
2022-09-16T09:18:18.398Z,100759.41
2022-09-16T09:20:55.269Z,100758.63
2022-09-16T09:23:38.382Z,100761.34
2022-09-16T09:26:14.816Z,100762.41
2022-09-16T09:29:08.705Z,100757.59
2022-09-16T09:31:48.746Z,100758.84
2022-09-16T09:34:29.235Z,100751.31
2022-09-16T09:37:18.318Z,100750.50
2022-09-16T09:40:04.590Z,100754.25
2022-09-16T09:42:38.473Z,100754.09
2022-09-16T09:45:19.778Z,100753.13
2022-09-16T09:47:53.420Z,100744.47
2022-09-16T09:50:27.191Z,100745.25
2022-09-16T09:53:05.722Z,100738.06
2022-09-16T09:55:35.370Z,100743.34
2022-09-16T09:58:12.345Z,100741.72
2022-09-16T10:00:40.136Z,100738.06
2022-09-16T10:03:13.730Z,100747.03
2022-09-16T10:05:42.417Z,100745.72
2022-09-16T10:08:18.434Z,100745.16
2022-09-16T10:10:51.475Z,100744.03
2022-09-16T10:13:20.600Z,100739.41
2022-09-16T10:15:53.294Z,100737.44
2022-09-16T10:18:27.509Z,100742.03
2022-09-16T10:21:03.922Z,100734.41
2022-09-16T10:23:32.324Z,100733.97
2022-09-16T10:26:08.593Z,100732.25
2022-09-16T10:28:37.656Z,100744.91
2022-09-16T10:31:08.874Z,100741.06
2022-09-16T10:33:44.735Z,100733.34
2022-09-16T10:36:20.217Z,100734.19
2022-09-16T10:38:53.122Z,100724.97
2022-09-16T10:41:23.214Z,100722.75
2022-09-16T10:43:53.986Z,100722.13
2022-09-16T10:46:22.155Z,100724.53
2022-09-16T10:48:54.174Z,100718.72
2022-09-16T10:51:25.464Z,100722.75
2022-09-16T10:53:56.029Z,100707.44
2022-09-16T10:56:25.932Z,100714.53
2022-09-16T10:59:03.529Z,100709.75
2022-09-16T11:01:45.483Z,100710.84
2022-09-16T11:04:55.552Z,100716.72
2022-09-16T11:07:37.315Z,100713.53
2022-09-16T11:10:20.150Z,100726.81
2022-09-16T11:13:18.081Z,100732.94
2022-09-16T11:16:02.209Z,100772.19
2022-09-16T11:18:44.163Z,100783.72
2022-09-16T11:21:31.486Z,100779.75
2022-09-16T11:24:16.565Z,100772.28
2022-09-16T11:26:52.895Z,100769.69
2022-09-16T11:29:39.979Z,100769.59
2022-09-16T11:32:18.168Z,100770.72
2022-09-16T11:35:01.465Z,100770.94
2022-09-16T11:37:38.924Z,100763.91
2022-09-16T11:40:23.583Z,100766.47
2022-09-16T11:43:05.338Z,100766.59
2022-09-16T11:45:48.291Z,100760.38
2022-09-16T11:48:39.353Z,100757.66
2022-09-16T11:51:21.345Z,100753.81
2022-09-16T11:54:15.033Z,100760.47
2022-09-16T11:56:47.931Z,100753.50
2022-09-16T11:59:22.582Z,100753.84
2022-09-16T12:01:56.697Z,100755.81
2022-09-16T12:04:31.813Z,100756.47
2022-09-16T12:07:07.585Z,100753.41
2022-09-16T12:09:42.788Z,100759.03
2022-09-16T12:12:14.808Z,100757.56
2022-09-16T12:14:46.382Z,100746.50
2022-09-16T12:17:18.776Z,100743.31
2022-09-16T12:19:53.454Z,100748.00
2022-09-16T12:22:25.123Z,100737.03
2022-09-16T12:25:01.111Z,100742.78
2022-09-16T12:27:45.663Z,100743.88
2022-09-16T12:30:18.342Z,100743.38
2022-09-16T12:33:00.645Z,100744.03
2022-09-16T12:35:33.235Z,100741.06
2022-09-16T12:38:01.947Z,100731.03
2022-09-16T12:40:37.617Z,100722.41
2022-09-16T12:43:32.920Z,100716.41
2022-09-16T12:46:35.084Z,100707.50
2022-09-16T12:49:37.477Z,100708.53
2022-09-16T12:52:27.240Z,100716.22
2022-09-16T12:55:43.971Z,100726.81
2022-09-16T12:58:29.839Z,100719.69
2022-09-16T13:01:13.901Z,100724.25
2022-09-16T13:03:46.457Z,100729.44
2022-09-16T13:06:23.539Z,100725.19
2022-09-16T13:08:52.202Z,100732.22
2022-09-16T13:12:23.987Z,100727.47
2022-09-16T13:14:22.834Z,100720.31
2022-09-16T13:16:55.852Z,100729.00
2022-09-16T13:19:34.130Z,100729.69
2022-09-16T13:22:18.924Z,100737.84
2022-09-16T13:24:51.960Z,100762.44
2022-09-16T13:27:35.637Z,100769.22
2022-09-16T13:30:22.061Z,100759.72
2022-09-16T13:33:00.810Z,100757.78
2022-09-16T13:35:42.548Z,100746.53
2022-09-16T13:38:26.722Z,100752.25
2022-09-16T13:40:59.472Z,100747.03
2022-09-16T13:43:33.324Z,100742.41
2022-09-16T13:46:10.392Z,100740.56
2022-09-16T13:48:44.309Z,100737.78
2022-09-16T13:51:19.296Z,100738.19
2022-09-16T13:53:49.459Z,100736.56
2022-09-16T13:56:43.929Z,100738.78
2022-09-16T13:59:26.623Z,100733.09
2022-09-16T14:02:05.419Z,100733.28
2022-09-16T14:04:51.382Z,100729.34
2022-09-16T14:07:31.119Z,100727.78
2022-09-16T14:10:04.467Z,100736.44
2022-09-16T14:12:40.631Z,100734.53
2022-09-16T14:15:10.330Z,100729.19
2022-09-16T14:17:42.267Z,100733.72
2022-09-16T14:20:17.205Z,100731.25
2022-09-16T14:22:45.502Z,100730.06
2022-09-16T14:25:29.675Z,100729.47
2022-09-16T14:28:17.141Z,100724.94
2022-09-16T14:30:52.791Z,100736.03
2022-09-16T14:33:24.670Z,100727.47
2022-09-16T14:35:55.997Z,100735.44
2022-09-16T14:39:07.086Z,100734.66
2022-09-16T14:41:25.834Z,100732.38
2022-09-16T14:43:56.074Z,100728.41
2022-09-16T14:46:25.402Z,100730.00
2022-09-16T14:48:53.216Z,100730.75
2022-09-16T14:51:24.672Z,100725.16
2022-09-16T14:54:13.361Z,100727.47
2022-09-16T14:56:41.729Z,100727.53
2022-09-16T14:59:12.604Z,100727.63
2022-09-16T15:01:43.267Z,100732.41
2022-09-16T15:04:18.566Z,100720.25
2022-09-16T15:06:52.766Z,100725.34
2022-09-16T15:09:36.013Z,100723.75
2022-09-16T15:12:05.504Z,100723.00
2022-09-16T15:14:33.402Z,100723.66
2022-09-16T15:17:04.896Z,100729.34
2022-09-16T15:19:37.006Z,100717.75
2022-09-16T15:22:06.010Z,100715.28
2022-09-16T15:24:35.908Z,100719.63
2022-09-16T15:27:04.530Z,100709.78
2022-09-16T15:29:35.097Z,100710.69
2022-09-16T15:32:21.689Z,100717.94
2022-09-16T15:35:06.100Z,100711.00
2022-09-16T15:37:35.696Z,100711.19
2022-09-16T15:40:12.559Z,100713.31
2022-09-16T15:42:40.371Z,100716.44
2022-09-16T15:45:17.361Z,100712.53
2022-09-16T15:47:56.575Z,100717.06
2022-09-16T15:50:27.079Z,100721.78
2022-09-16T15:53:00.472Z,100704.44
2022-09-16T15:55:34.158Z,100718.72
2022-09-16T15:58:07.568Z,100715.97
2022-09-16T16:01:02.846Z,100722.50
2022-09-16T16:03:51.157Z,100718.41
2022-09-16T16:06:19.165Z,100717.69
2022-09-16T16:08:50.107Z,100727.94
2022-09-16T16:11:21.202Z,100731.84
2022-09-16T16:13:51.217Z,100728.13
2022-09-16T16:16:20.223Z,100733.78
2022-09-16T16:18:49.385Z,100735.31
2022-09-16T16:21:17.942Z,100737.56
2022-09-16T16:23:45.645Z,100741.06
2022-09-16T16:26:13.529Z,100736.28
2022-09-16T16:28:41.291Z,100736.59
2022-09-16T16:31:14.697Z,100738.47
2022-09-16T16:33:44.884Z,100749.72
2022-09-16T16:36:15.083Z,100748.16
2022-09-16T16:38:43.699Z,100753.50
2022-09-16T16:41:12.346Z,100747.78
2022-09-16T16:43:40.709Z,100749.28
2022-09-16T16:46:08.941Z,100753.63
2022-09-16T16:48:37.134Z,100755.34
2022-09-16T16:51:07.743Z,100758.38
2022-09-16T16:53:37.577Z,100757.38
2022-09-16T16:56:09.275Z,100759.97
2022-09-16T16:58:40.742Z,100747.75
2022-09-16T17:01:09.590Z,100754.75
2022-09-16T17:03:39.109Z,100748.47
2022-09-16T17:06:07.941Z,100759.34
2022-09-16T17:08:37.216Z,100758.56
2022-09-16T17:11:10.132Z,100762.38
2022-09-16T17:13:38.719Z,100757.53
2022-09-16T17:16:07.250Z,100763.81
2022-09-16T17:18:35.554Z,100772.31
2022-09-16T17:21:04.772Z,100767.53
2022-09-16T17:23:32.758Z,100769.66
2022-09-16T17:26:02.890Z,100775.69
2022-09-16T17:28:31.033Z,100777.13
2022-09-16T17:30:58.972Z,100782.53
2022-09-16T17:33:26.783Z,100776.94
2022-09-16T17:36:01.825Z,100770.41
2022-09-16T17:38:29.778Z,100782.94
2022-09-16T17:41:04.077Z,100781.16
2022-09-16T17:43:32.952Z,100790.50
2022-09-16T17:46:01.414Z,100793.06
2022-09-16T17:48:29.845Z,100788.75
2022-09-16T17:50:58.128Z,100793.34
2022-09-16T17:53:26.725Z,100797.91
2022-09-16T17:56:02.061Z,100802.53
2022-09-16T17:58:31.822Z,100800.03
2022-09-16T18:01:06.247Z,100799.13
2022-09-16T18:03:34.435Z,100787.94
2022-09-16T18:06:07.413Z,100792.19
2022-09-16T18:08:35.602Z,100791.28
2022-09-16T18:11:03.826Z,100797.19
2022-09-16T18:13:33.524Z,100799.59
2022-09-16T18:16:05.449Z,100808.59
2022-09-16T18:18:33.293Z,100803.47
2022-09-16T18:21:01.061Z,100808.41
2022-09-16T18:23:28.935Z,100801.34
2022-09-16T18:25:57.150Z,100802.59
2022-09-16T18:28:25.190Z,100810.09
2022-09-16T18:31:04.359Z,100810.78
2022-09-16T18:33:32.166Z,100809.22
2022-09-16T18:36:01.430Z,100809.88
2022-09-16T18:38:30.036Z,100810.84
2022-09-16T18:41:06.305Z,100818.41
2022-09-16T18:43:34.507Z,100824.84
2022-09-16T18:46:15.271Z,100828.31
2022-09-16T18:48:45.398Z,100834.56
2022-09-16T18:51:18.001Z,100825.81
2022-09-16T18:53:46.568Z,100832.66
2022-09-16T18:56:19.711Z,100836.50
2022-09-16T18:59:10.062Z,100831.75
2022-09-16T19:01:38.330Z,100838.22
2022-09-16T19:04:08.314Z,100830.97
2022-09-16T19:06:38.522Z,100829.47
2022-09-16T19:09:08.828Z,100838.38
2022-09-16T19:11:37.452Z,100833.13
2022-09-16T19:14:06.510Z,100831.19
2022-09-16T19:16:34.327Z,100834.50
2022-09-16T19:19:05.499Z,100834.41
2022-09-16T19:21:33.679Z,100829.84
2022-09-16T19:24:03.636Z,100841.78
2022-09-16T19:26:33.509Z,100846.03
2022-09-16T19:29:01.525Z,100845.44
2022-09-16T19:31:31.408Z,100849.88
2022-09-16T19:34:00.486Z,100842.03
2022-09-16T19:36:33.620Z,100842.25
2022-09-16T19:39:02.203Z,100843.38
2022-09-16T19:41:32.204Z,100838.59
2022-09-16T19:44:02.646Z,100845.97
2022-09-16T19:46:32.429Z,100841.56
2022-09-16T19:49:00.246Z,100843.59
2022-09-16T19:51:29.456Z,100834.38
2022-09-16T19:53:58.327Z,100850.66
2022-09-16T19:56:27.931Z,100841.97
2022-09-16T19:58:56.434Z,100845.75
2022-09-16T20:01:26.066Z,100843.31
2022-09-16T20:03:54.483Z,100848.69
2022-09-16T20:06:24.273Z,100846.28
2022-09-16T20:08:56.431Z,100846.59
2022-09-16T20:11:29.303Z,100856.06
2022-09-16T20:13:58.977Z,100857.88
2022-09-16T20:16:28.832Z,100858.66
2022-09-16T20:18:56.689Z,100863.34
2022-09-16T20:21:26.451Z,100865.72
2022-09-16T20:23:56.045Z,100874.25
2022-09-16T20:26:24.484Z,100871.72
2022-09-16T20:28:54.434Z,100883.03
2022-09-16T20:31:24.827Z,100882.66
2022-09-16T20:33:53.579Z,100884.25
2022-09-16T20:36:22.917Z,100885.81
2022-09-16T20:38:51.476Z,100888.25
2022-09-16T20:41:22.492Z,100889.84
2022-09-16T20:43:51.034Z,100892.91
2022-09-16T20:46:21.575Z,100891.28
2022-09-16T20:48:50.031Z,100899.31
2022-09-16T20:51:19.764Z,100896.75
2022-09-16T20:53:52.492Z,100904.50
2022-09-16T20:56:22.583Z,100899.03
2022-09-16T20:58:50.547Z,100895.69
2022-09-16T21:01:20.658Z,100904.88
2022-09-16T21:03:52.069Z,100907.81
2022-09-16T21:06:20.624Z,100909.19
2022-09-16T21:08:48.714Z,100913.00
2022-09-16T21:11:18.182Z,100917.66
2022-09-16T21:13:52.752Z,100902.09
2022-09-16T21:16:21.636Z,100905.75
2022-09-16T21:18:54.316Z,100910.75
2022-09-16T21:21:22.567Z,100918.00
2022-09-16T21:23:51.131Z,100923.00
2022-09-16T21:26:20.652Z,100916.75
2022-09-16T21:28:57.054Z,100917.09
2022-09-16T21:31:26.152Z,100919.34
2022-09-16T21:33:54.147Z,100922.75
2022-09-16T21:36:23.625Z,100928.84
2022-09-16T21:38:52.636Z,100920.75
2022-09-16T21:41:22.404Z,100921.19
2022-09-16T21:43:55.452Z,100922.47
2022-09-16T21:46:26.705Z,100920.22
2022-09-16T21:48:57.314Z,100919.06
2022-09-16T21:51:25.433Z,100922.75
2022-09-16T21:53:53.681Z,100922.06
2022-09-16T21:56:23.142Z,100923.53
2022-09-16T21:58:56.102Z,100924.53
2022-09-16T22:01:25.702Z,100927.59
2022-09-16T22:03:56.450Z,100925.66
2022-09-16T22:06:25.530Z,100926.63
2022-09-16T22:08:54.007Z,100931.28
2022-09-16T22:11:24.230Z,100933.50
2022-09-16T22:13:54.007Z,100933.66
2022-09-16T22:16:27.083Z,100932.19
2022-09-16T22:18:56.114Z,100939.13
2022-09-16T22:21:25.542Z,100926.28
2022-09-16T22:23:53.398Z,100933.94
2022-09-16T22:26:23.088Z,100932.09
2022-09-16T22:28:51.516Z,100927.59
2022-09-16T22:31:22.982Z,100934.19
2022-09-16T22:33:52.866Z,100924.72
2022-09-16T22:36:22.582Z,100919.41
2022-09-16T22:38:52.979Z,100921.16
2022-09-16T22:41:21.337Z,100919.31
2022-09-16T22:43:51.434Z,100928.13
2022-09-16T22:46:22.141Z,100921.41
2022-09-16T22:48:50.481Z,100923.09
2022-09-16T22:51:20.224Z,100927.94
2022-09-16T22:53:48.763Z,100927.13
2022-09-16T22:56:19.137Z,100924.41
2022-09-16T22:58:48.155Z,100928.72
2022-09-16T23:01:18.218Z,100926.66
2022-09-16T23:03:48.311Z,100925.06
2022-09-16T23:06:16.896Z,100931.38
2022-09-16T23:08:46.454Z,100922.59
2022-09-16T23:11:16.296Z,100926.13
2022-09-16T23:13:45.558Z,100918.72
2022-09-16T23:16:16.210Z,100924.41
2022-09-16T23:18:45.094Z,100926.34
2022-09-16T23:21:15.975Z,100919.16
2022-09-16T23:23:45.871Z,100922.22
2022-09-16T23:26:18.103Z,100923.66
2022-09-16T23:28:47.394Z,100936.38
2022-09-16T23:31:17.097Z,100933.50
2022-09-16T23:33:45.798Z,100924.84
2022-09-16T23:36:16.840Z,100930.31
2022-09-16T23:38:45.525Z,100932.44
2022-09-16T23:41:15.431Z,100937.09
2022-09-16T23:43:44.216Z,100923.94
2022-09-16T23:46:14.135Z,100924.06
2022-09-16T23:48:43.128Z,100929.38
2022-09-16T23:51:11.455Z,100923.44
2022-09-16T23:53:42.325Z,100920.72
2022-09-16T23:56:12.099Z,100927.31
2022-09-16T23:58:40.189Z,100926.84
